Unionville, Indiana
Current Conditions -  °F | °C
As of 7:15 PM on Thursday 27 Nov 2014 (Local Time) from K1II Reporting Station
Light Snow Light Snow  
Wind Chill: 23°   Ceiling: 3100
Heat Index: 30°   Visibility: 10mi
Dew Point: 21°   Wind: 7mph
Humidity: 69%   Direction: 310°NW
Pressure: 30.41"   Gusts: NA
Location:  39.23°N, 86.42°W
Report Text: K1II 280015Z AUTO 31006KT 10SM -SN OVC031 M01/M06 A3041 RMK AO2
Loading
Personal Weather Stations






























Interactive Weather Map New forecast layout! Learn more

10-Day Weather Forecast

Advertisements
Track Severe Weather on mobile